Time;durP1;ratioP1;P1;durP2;ratioP2;P2;SDS_P1;SDS_P2;PMS_P1;PMS_P2;Temp;Humidity;BMP_temperature;BMP_pressure;BME280_temperature;BME280_humidity;BME280_pressure;Samples;Min_cycle;Max_cycle;Signal;HPM_P1;HPM_P2
2022/12/17 13:08:07;;;;;;;110.00;50.10;;;;;;;-2.51;100.00;99583.91;104799;1306;64966;-79
2022/12/17 13:10:35;;;;;;;103.10;48.60;;;;;;;-2.49;100.00;99588.76;105071;1300;58482;-79
2022/12/17 13:13:18;;;;;;;118.00;53.20;;;;;;;-2.50;100.00;99596.95;105562;1296;61539;-80
2022/12/17 13:15:54;;;;;;;111.10;52.10;;;;;;;-2.53;100.00;99598.52;105556;1290;64051;-79
2022/12/17 13:18:25;;;;;;;97.50;45.00;;;;;;;-2.54;100.00;99602.89;105308;1298;60043;-78
2022/12/17 13:21:16;;;;;;;109.10;49.50;;;;;;;-2.59;100.00;99607.42;105542;1301;65076;-79
2022/12/17 13:23:42;;;;;;;112.30;50.40;;;;;;;-2.65;100.00;99611.46;104819;1298;58128;-78
2022/12/17 13:26:42;;;;;;;107.40;47.90;;;;;;;-2.71;100.00;99615.64;105398;1290;58241;-79
2022/12/17 13:29:23;;;;;;;106.00;50.30;;;;;;;-2.75;100.00;99620.17;105375;1291;73269;-79
2022/12/17 13:32:15;;;;;;;107.50;50.50;;;;;;;-2.74;100.00;99622.26;105404;1297;60143;-80
2022/12/17 13:35:22;;;;;;;95.50;43.70;;;;;;;-2.75;100.00;99626.63;105409;1303;65103;-79
2022/12/17 13:38:17;;;;;;;103.50;47.40;;;;;;;-2.81;100.00;99634.46;105199;1307;58650;-78
2022/12/17 13:41:07;;;;;;;99.20;46.70;;;;;;;-2.88;100.00;99638.83;105153;1299;58014;-79
2022/12/17 13:43:57;;;;;;;112.80;50.70;;;;;;;-2.90;100.00;99639.16;105431;1297;65686;-79
2022/12/17 13:46:29;;;;;;;100.60;48.50;;;;;;;-2.90;100.00;99647.70;105380;1289;60952;-79
2022/12/17 13:49:00;;;;;;;115.60;52.30;;;;;;;-2.92;100.00;99653.09;105393;1298;65681;-78
2022/12/17 13:51:31;;;;;;;110.70;52.20;;;;;;;-2.93;100.00;99656.21;105379;1298;58112;-79
2022/12/17 13:54:02;;;;;;;109.30;52.80;;;;;;;-2.93;100.00;99661.27;105244;1292;60408;-75
2022/12/17 13:56:31;;;;;;;116.70;56.20;;;;;;;-2.94;100.00;99669.27;105387;1288;65097;-79
2022/12/17 13:59:01;;;;;;;118.10;53.70;;;;;;;-2.95;100.00;99670.66;105396;1292;59373;-79
2022/12/17 14:01:27;;;;;;;113.90;52.00;;;;;;;-2.97;100.00;99671.88;105809;1288;64046;-77
2022/12/17 14:03:56;;;;;;;128.90;58.00;;;;;;;-2.99;100.00;99677.61;106080;1288;57998;-79
2022/12/17 14:06:25;;;;;;;128.20;56.60;;;;;;;-3.01;100.00;99679.35;106092;1288;58058;-79
2022/12/17 14:08:53;;;;;;;117.00;54.80;;;;;;;-3.00;100.00;99677.77;105932;1284;66269;-79
2022/12/17 14:14:39;;;;;;;126.00;57.80;;;;;;;-3.06;100.00;99683.70;106071;1281;72575;-79
2022/12/17 14:17:05;;;;;;;126.60;60.10;;;;;;;-3.09;100.00;99686.66;105266;1294;58040;-78
2022/12/17 14:19:32;;;;;;;126.30;58.60;;;;;;;-3.10;100.00;99690.30;105436;1297;58030;-78
2022/12/17 14:21:59;;;;;;;110.10;53.40;;;;;;;-3.12;100.00;99696.57;105409;1295;65844;-79
2022/12/17 14:24:28;;;;;;;112.60;52.90;;;;;;;-3.14;100.00;99702.48;104669;1291;1002990;-79
2022/12/17 14:26:57;;;;;;;113.90;53.10;;;;;;;-3.19;100.00;99708.04;105430;1297;64674;-78
2022/12/17 14:29:27;;;;;;;113.10;53.00;;;;;;;-3.23;100.00;99710.47;105443;1291;58051;-83
2022/12/17 14:31:59;;;;;;;101.30;49.20;;;;;;;-3.27;100.00;99712.04;105459;1290;59332;-78
2022/12/17 14:34:25;;;;;;;115.30;54.70;;;;;;;-3.30;100.00;99716.73;105245;1299;66495;-78
2022/12/17 14:36:57;;;;;;;114.60;49.70;;;;;;;-3.34;100.00;99722.63;105297;1297;58340;-79
2022/12/17 14:39:27;;;;;;;119.80;56.10;;;;;;;-3.36;100.00;99731.31;105419;1292;65210;-78
2022/12/17 14:42:25;;;;;;;127.70;60.70;;;;;;;-3.36;100.00;99739.66;105391;1290;59970;-80
2022/12/17 14:45:04;;;;;;;127.50;60.50;;;;;;;-3.39;100.00;99741.56;105408;1297;58112;-78
2022/12/17 14:47:58;;;;;;;131.80;61.10;;;;;;;-3.43;100.00;99740.86;105395;1297;65100;-78
2022/12/17 14:50:33;;;;;;;135.80;67.00;;;;;;;-3.46;100.00;99742.94;105429;1291;69733;-78
2022/12/17 14:53:03;;;;;;;140.90;69.00;;;;;;;-3.49;100.00;99748.67;105414;1297;64815;-79
2022/12/17 14:55:51;;;;;;;142.40;68.60;;;;;;;-3.52;100.00;99755.95;105725;1288;58494;-80
2022/12/17 14:58:20;;;;;;;141.20;65.70;;;;;;;-3.57;100.00;99760.98;106073;1281;58185;-80
2022/12/17 15:00:58;;;;;;;135.00;65.10;;;;;;;-3.59;100.00;99762.88;106210;1285;66471;-79
2022/12/17 15:03:31;;;;;;;135.50;63.20;;;;;;;-3.61;100.00;99764.45;106193;1282;67608;-78
2022/12/17 15:06:01;;;;;;;128.40;61.30;;;;;;;-3.61;100.00;99770.17;106058;1287;74330;-79
2022/12/17 15:08:35;;;;;;;136.40;60.00;;;;;;;-3.64;100.00;99776.95;106077;1287;60837;-81
2022/12/17 15:11:01;;;;;;;133.90;59.70;;;;;;;-3.66;100.00;99780.41;106077;1288;57924;-80
2022/12/17 15:13:27;;;;;;;136.20;62.80;;;;;;;-3.68;100.00;99782.15;106073;1288;58213;-78
2022/12/17 15:15:54;;;;;;;140.20;65.40;;;;;;;-3.69;100.00;99784.73;106063;1289;58742;-81
2022/12/17 15:18:20;;;;;;;132.40;59.90;;;;;;;-3.70;100.00;99787.17;106079;1288;59592;-78
2022/12/17 15:20:46;;;;;;;119.20;58.10;;;;;;;-3.67;100.00;99792.73;106041;1289;58019;-78
2022/12/17 15:23:17;;;;;;;119.00;53.00;;;;;;;-3.68;100.00;99795.34;106059;1282;58335;-78
2022/12/17 15:25:45;;;;;;;126.40;60.30;;;;;;;-3.68;100.00;99797.95;106071;1288;66444;-78
2022/12/17 15:28:11;;;;;;;132.00;58.80;;;;;;;-3.70;100.00;99795.67;106089;1288;60223;-79
2022/12/17 15:31:02;;;;;;;138.20;62.30;;;;;;;-3.71;100.00;99801.06;106054;1288;58034;-78
2022/12/17 15:33:29;;;;;;;127.90;59.20;;;;;;;-3.72;100.00;99803.81;106034;1288;58097;-80
2022/12/17 15:35:57;;;;;;;133.70;61.80;;;;;;;-3.72;100.00;99807.82;105344;1289;1002998;-79
2022/12/17 15:38:23;;;;;;;129.70;62.30;;;;;;;-3.71;100.00;99810.60;106184;1287;66640;-79
2022/12/17 15:40:49;;;;;;;135.50;65.00;;;;;;;-3.71;100.00;99814.60;106108;1281;58086;-79
2022/12/17 15:43:15;;;;;;;133.00;59.50;;;;;;;-3.72;100.00;99820.15;106060;1288;58069;-80
2022/12/17 15:45:44;;;;;;;133.40;61.40;;;;;;;-3.72;100.00;99823.27;106046;1289;58222;-79
2022/12/17 15:48:12;;;;;;;126.70;58.30;;;;;;;-3.72;100.00;99826.91;106110;1289;58378;-79
2022/12/17 15:50:39;;;;;;;139.50;60.20;;;;;;;-3.73;100.00;99827.78;106112;1281;66407;-79
2022/12/17 15:53:06;;;;;;;134.80;63.00;;;;;;;-3.74;100.00;99830.04;105837;1290;69713;-79
2022/12/17 15:55:33;;;;;;;135.70;61.20;;;;;;;-3.74;100.00;99830.38;106074;1288;62661;-79
2022/12/17 15:57:59;;;;;;;132.50;59.60;;;;;;;-3.74;100.00;99839.77;105631;1295;60561;-79
2022/12/17 16:00:25;;;;;;;132.80;61.90;;;;;;;-3.76;100.00;99844.61;106042;1290;58035;-78
2022/12/17 16:02:53;;;;;;;129.20;60.80;;;;;;;-3.79;100.00;99842.35;106056;1285;75040;-79
2022/12/17 16:05:21;;;;;;;129.90;61.50;;;;;;;-3.80;100.00;99849.10;105707;1288;58264;-78
2022/12/17 16:07:47;;;;;;;142.90;64.20;;;;;;;-3.79;100.00;99852.41;106036;1281;63870;-79
2022/12/17 16:10:15;;;;;;;135.70;61.80;;;;;;;-3.79;100.00;99856.77;106042;1291;59950;-78
2022/12/17 16:12:41;;;;;;;132.90;61.60;;;;;;;-3.79;100.00;99857.11;105703;1294;58180;-79
2022/12/17 16:15:08;;;;;;;128.70;58.50;;;;;;;-3.79;100.00;99859.02;106079;1288;58379;-79
2022/12/17 16:17:36;;;;;;;128.90;58.20;;;;;;;-3.78;100.00;99860.58;106078;1288;58903;-77
2022/12/17 16:20:04;;;;;;;124.20;58.10;;;;;;;-3.77;100.00;99865.28;106067;1289;58128;-78
2022/12/17 16:22:30;;;;;;;133.30;60.30;;;;;;;-3.76;100.00;99870.14;105698;1294;58318;-79
2022/12/17 16:24:56;;;;;;;121.70;53.90;;;;;;;-3.75;100.00;99872.57;105814;1291;58154;-79
2022/12/17 16:27:22;;;;;;;134.30;59.20;;;;;;;-3.75;100.00;99877.09;106145;1284;58016;-79
2022/12/17 16:29:48;;;;;;;136.90;57.10;;;;;;;-3.75;100.00;99879.36;106138;1279;58173;-80
2022/12/17 16:32:16;;;;;;;137.40;59.40;;;;;;;-3.77;100.00;99876.22;105108;1290;1003041;-80
2022/12/17 16:34:42;;;;;;;131.20;57.70;;;;;;;-3.77;100.00;99882.82;106104;1289;58034;-81
2022/12/17 16:37:09;;;;;;;129.80;58.10;;;;;;;-3.76;100.00;99880.73;106093;1288;58371;-79
2022/12/17 16:39:35;;;;;;;118.70;53.20;;;;;;;-3.75;100.00;99883.52;105915;1279;58687;-79
2022/12/17 16:42:01;;;;;;;131.20;55.70;;;;;;;-3.76;100.00;99887.67;105317;1289;1002709;-80
2022/12/17 16:44:27;;;;;;;108.20;51.20;;;;;;;-3.77;100.00;99894.96;106072;1289;58378;-79
2022/12/17 16:46:53;;;;;;;117.90;51.60;;;;;;;-3.77;100.00;99898.80;106112;1288;58037;-79
2022/12/17 16:49:22;;;;;;;123.20;54.60;;;;;;;-3.77;100.00;99904.34;106099;1288;58028;-78
2022/12/17 16:51:53;;;;;;;129.00;54.30;;;;;;;-3.78;100.00;99906.94;106072;1282;58239;-78
2022/12/17 16:54:22;;;;;;;126.70;52.50;;;;;;;-3.79;100.00;99910.58;106076;1288;61036;-78
2022/12/17 16:56:48;;;;;;;132.90;54.90;;;;;;;-3.79;100.00;99916.66;106053;1288;64203;-80
2022/12/17 16:59:16;;;;;;;112.20;48.30;;;;;;;-3.78;100.00;99921.19;106090;1281;60546;-78
2022/12/17 17:01:45;;;;;;;131.60;55.90;;;;;;;-3.80;100.00;99919.77;105927;1285;58165;-79
2022/12/17 17:04:12;;;;;;;120.00;47.00;;;;;;;-3.80;100.00;99922.37;106047;1288;66447;-82
2022/12/17 17:06:44;;;;;;;115.00;52.20;;;;;;;-3.81;100.00;99928.98;106095;1281;68544;-81
2022/12/17 17:09:10;;;;;;;128.80;53.50;;;;;;;-3.83;100.00;99927.91;106122;1281;63968;-78
2022/12/17 17:11:36;;;;;;;111.00;47.10;;;;;;;-3.83;100.00;99929.48;106075;1282;58080;-80
2022/12/17 17:14:06;;;;;;;99.50;43.70;;;;;;;-3.84;100.00;99934.33;105349;1289;1002452;-79
2022/12/17 17:16:33;;;;;;;113.70;47.20;;;;;;;-3.86;100.00;99938.48;106112;1281;65089;-79
2022/12/17 17:18:59;;;;;;;106.20;41.70;;;;;;;-3.89;100.00;99941.42;106076;1288;67739;-78
2022/12/17 17:21:35;;;;;;;115.50;47.10;;;;;;;-3.91;100.00;99944.70;105924;1292;58222;-78
2022/12/17 17:24:06;;;;;;;113.80;44.50;;;;;;;-3.92;100.00;99949.04;106118;1288;58015;-79
2022/12/17 17:26:33;;;;;;;111.30;44.00;;;;;;;-3.95;100.00;99952.30;105966;1292;60171;-79
2022/12/17 17:29:00;;;;;;;100.40;41.40;;;;;;;-3.99;100.00;99959.06;106082;1289;74993;-79
2022/12/17 17:31:27;;;;;;;110.20;44.40;;;;;;;-4.00;100.00;99965.48;105739;1289;68749;-79
2022/12/17 17:33:53;;;;;;;104.40;42.30;;;;;;;-4.01;100.00;99971.71;106055;1288;65277;-79
2022/12/17 17:36:22;;;;;;;105.70;41.60;;;;;;;-4.03;100.00;99973.26;106223;1282;58069;-79
2022/12/17 17:38:50;;;;;;;120.20;46.20;;;;;;;-4.05;100.00;99979.66;106080;1281;61549;-78
2022/12/17 17:41:19;;;;;;;122.80;45.40;;;;;;;-4.08;100.00;99983.98;105941;1289;210321;-78
2022/12/17 17:43:46;;;;;;;114.80;45.50;;;;;;;-4.09;100.00;99985.00;106086;1289;61197;-79
2022/12/17 17:46:15;;;;;;;103.20;40.90;;;;;;;-4.09;100.00;99985.88;106107;1288;63200;-79
2022/12/17 17:48:43;;;;;;;121.50;45.50;;;;;;;-4.11;100.00;99979.27;106112;1287;58127;-79
2022/12/17 17:51:20;;;;;;;112.00;45.90;;;;;;;-4.12;100.00;99978.22;105965;1291;58061;-80
2022/12/17 17:53:49;;;;;;;113.10;43.60;;;;;;;-4.13;100.00;99980.13;106102;1288;66246;-79
2022/12/17 17:56:20;;;;;;;124.70;47.90;;;;;;;-4.15;100.00;99983.40;105969;1284;59002;-79
2022/12/17 17:58:55;;;;;;;108.50;41.40;;;;;;;-4.16;100.00;99989.30;105342;1291;1002308;-78
2022/12/17 18:01:24;;;;;;;124.30;47.10;;;;;;;-4.17;100.00;99999.35;105940;1292;58151;-79
2022/12/17 18:03:53;;;;;;;115.80;43.80;;;;;;;-4.19;100.00;100009.41;105391;1282;1002267;-79
2022/12/17 18:06:19;;;;;;;115.40;43.10;;;;;;;-4.18;100.00;100014.79;106109;1281;74927;-79
2022/12/17 18:08:46;;;;;;;123.90;46.50;;;;;;;-4.20;100.00;100017.02;106109;1288;67848;-78
2022/12/17 18:11:15;;;;;;;99.50;40.60;;;;;;;-4.20;100.00;100024.99;106106;1289;58106;-78
2022/12/17 18:13:54;;;;;;;115.50;46.80;;;;;;;-4.21;100.00;100029.69;105779;1294;58176;-79
2022/12/17 18:16:31;;;;;;;101.60;43.90;;;;;;;-4.21;100.00;100035.59;106153;1288;58167;-78
2022/12/17 18:19:01;;;;;;;108.40;46.50;;;;;;;-4.22;100.00;100037.84;106101;1281;73417;-79
2022/12/17 18:21:28;;;;;;;109.90;43.70;;;;;;;-4.23;100.00;100041.46;105191;1292;1002774;-79
2022/12/17 18:24:22;;;;;;;106.70;43.50;;;;;;;-4.24;100.00;100047.88;106095;1289;72649;-78
2022/12/17 18:26:50;;;;;;;116.10;42.50;;;;;;;-4.22;100.00;100049.97;105442;1297;58283;-79
2022/12/17 18:29:19;;;;;;;105.00;41.00;;;;;;;-4.22;100.00;100056.91;105312;1298;58175;-79
2022/12/17 18:31:46;;;;;;;106.40;43.70;;;;;;;-4.22;100.00;100064.72;105424;1297;66499;-77
2022/12/17 18:34:14;;;;;;;103.50;41.70;;;;;;;-4.23;100.00;100065.23;105180;1299;59874;-79
2022/12/17 18:36:43;;;;;;;104.90;43.10;;;;;;;-4.24;100.00;100062.43;105419;1305;64891;-79
2022/12/17 18:39:14;;;;;;;106.00;42.70;;;;;;;-4.24;100.00;100068.52;105423;1297;60805;-79
2022/12/17 18:44:29;;;;;;;100.70;40.20;;;;;;;-4.27;100.00;100080.63;105446;1303;75739;-78
2022/12/17 18:46:55;;;;;;;93.30;39.50;;;;;;;-4.28;100.00;100080.09;105479;1297;67525;-78
2022/12/17 18:49:22;;;;;;;104.20;41.00;;;;;;;-4.29;100.00;100081.30;105465;1297;58123;-79
2022/12/17 18:51:49;;;;;;;99.60;38.00;;;;;;;-4.30;100.00;100090.65;105454;1303;59326;-78
2022/12/17 18:54:23;;;;;;;98.20;36.50;;;;;;;-4.32;100.00;100091.85;105440;1297;60442;-79
2022/12/17 18:56:51;;;;;;;92.70;38.90;;;;;;;-4.33;100.00;100094.96;104594;1299;1002279;-78
2022/12/17 18:59:20;;;;;;;106.00;39.50;;;;;;;-4.36;100.00;100094.23;105438;1297;60877;-79
2022/12/17 19:01:46;;;;;;;99.60;38.80;;;;;;;-4.39;100.00;100099.24;104910;1289;62525;-78
2022/12/17 19:04:19;;;;;;;101.10;36.90;;;;;;;-4.41;100.00;100105.29;105766;1290;58081;-79
2022/12/17 19:06:52;;;;;;;104.70;40.40;;;;;;;-4.45;100.00;100109.41;106085;1289;58102;-79
2022/12/17 19:09:27;;;;;;;96.40;35.90;;;;;;;-4.48;100.00;100109.02;106115;1285;63777;-79
2022/12/17 19:11:54;;;;;;;92.40;35.30;;;;;;;-4.52;100.00;100108.80;106134;1289;61280;-79
2022/12/17 19:14:22;;;;;;;95.50;35.50;;;;;;;-4.54;100.00;100113.63;106092;1283;73689;-79
2022/12/17 19:16:49;;;;;;;98.80;38.60;;;;;;;-4.58;100.00;100116.36;106090;1285;58203;-79
2022/12/17 19:19:16;;;;;;;98.10;38.50;;;;;;;-4.59;100.00;100117.05;105991;1291;58328;-78
2022/12/17 19:21:42;;;;;;;94.80;36.90;;;;;;;-4.59;100.00;100114.26;106098;1288;58172;-79
2022/12/17 19:24:11;;;;;;;96.50;35.80;;;;;;;-4.59;100.00;100119.30;106130;1282;58134;-78
2022/12/17 19:26:37;;;;;;;96.90;37.90;;;;;;;-4.61;100.00;100119.27;106075;1281;65181;-78
2022/12/17 19:29:04;;;;;;;93.50;36.50;;;;;;;-4.62;100.00;100124.80;106117;1288;58172;-79
2022/12/17 19:31:31;;;;;;;92.20;35.90;;;;;;;-4.63;100.00;100129.13;106095;1288;58079;-79
2022/12/17 19:33:59;;;;;;;91.60;34.90;;;;;;;-4.64;100.00;100132.06;105361;1289;1002106;-78
2022/12/17 19:36:26;;;;;;;92.50;37.20;;;;;;;-4.66;100.00;100141.40;106082;1282;68699;-79
2022/12/17 19:38:55;;;;;;;91.00;35.90;;;;;;;-4.66;100.00;100145.02;105782;1293;62387;-80
2022/12/17 19:41:22;;;;;;;90.20;37.40;;;;;;;-4.68;100.00;100149.88;105924;1290;59720;-79
2022/12/17 19:43:56;;;;;;;91.00;36.40;;;;;;;-4.68;100.00;100149.70;106073;1289;57899;-79
2022/12/17 19:46:23;;;;;;;92.50;37.00;;;;;;;-4.69;100.00;100148.29;106101;1281;75131;-79
2022/12/17 19:48:50;;;;;;;92.20;36.00;;;;;;;-4.68;100.00;100150.90;105359;1289;1002458;-80
2022/12/17 19:51:19;;;;;;;90.70;35.10;;;;;;;-4.67;100.00;100156.64;105962;1289;63679;-79
2022/12/17 19:53:46;;;;;;;93.20;37.60;;;;;;;-4.67;100.00;100160.79;105369;1281;1002867;-80
2022/12/17 19:56:14;;;;;;;90.50;36.50;;;;;;;-4.69;100.00;100166.51;106113;1288;58220;-82
2022/12/17 19:58:41;;;;;;;94.90;37.10;;;;;;;-4.70;100.00;100163.70;106109;1288;65176;-80
2022/12/17 20:01:10;;;;;;;97.00;37.70;;;;;;;-4.71;100.00;100163.52;106100;1289;61313;-79
2022/12/17 20:03:39;;;;;;;83.60;30.70;;;;;;;-4.72;100.00;100172.00;106083;1288;63818;-80
2022/12/17 20:06:06;;;;;;;85.00;37.20;;;;;;;-4.73;100.00;100172.69;106099;1288;58100;-81
2022/12/17 20:08:32;;;;;;;95.60;36.50;;;;;;;-4.75;100.00;100177.86;106104;1289;57970;-79
2022/12/17 20:11:01;;;;;;;90.10;34.50;;;;;;;-4.74;100.00;100179.09;105287;1291;1002409;-79
2022/12/17 20:13:27;;;;;;;92.90;37.70;;;;;;;-4.74;100.00;100183.59;106097;1289;61133;-80
2022/12/17 20:16:02;;;;;;;97.70;36.60;;;;;;;-4.75;100.00;100189.83;106066;1287;64126;-79
2022/12/17 20:18:29;;;;;;;89.90;35.20;;;;;;;-4.75;100.00;100197.45;106080;1289;58534;-79
2022/12/17 20:21:04;;;;;;;89.60;35.00;;;;;;;-4.74;100.00;100195.89;106116;1289;60146;-79
2022/12/17 20:23:31;;;;;;;87.40;34.70;;;;;;;-4.74;100.00;100200.93;106090;1288;65351;-78
2022/12/17 20:26:03;;;;;;;84.70;35.20;;;;;;;-4.74;100.00;100198.16;106102;1288;59932;-79
2022/12/17 20:28:28;;;;;;;91.40;36.60;;;;;;;-4.74;100.00;100203.55;106102;1291;73863;-80
2022/12/17 20:30:54;;;;;;;97.30;37.60;;;;;;;-4.75;100.00;100210.98;106060;1288;58060;-79
2022/12/17 20:33:21;;;;;;;82.40;32.60;;;;;;;-4.74;100.00;100217.40;106119;1287;58117;-79
2022/12/17 20:35:46;;;;;;;87.90;37.10;;;;;;;-4.76;100.00;100221.02;106099;1289;58117;-79
2022/12/17 20:38:12;;;;;;;88.30;36.00;;;;;;;-4.76;100.00;100226.57;105733;1284;58212;-79
2022/12/17 20:40:39;;;;;;;83.60;35.00;;;;;;;-4.75;100.00;100226.58;105782;1284;58178;-79
2022/12/17 20:43:05;;;;;;;86.00;35.40;;;;;;;-4.73;100.00;100230.95;106083;1295;58105;-79
2022/12/17 20:45:31;;;;;;;74.30;31.00;;;;;;;-4.73;100.00;100235.11;106086;1288;58136;-79
2022/12/17 20:47:57;;;;;;;85.20;33.80;;;;;;;-4.73;100.00;100238.92;106137;1288;58491;-77
2022/12/17 20:50:23;;;;;;;86.40;34.50;;;;;;;-4.73;100.00;100246.20;105947;1291;65345;-79
2022/12/17 20:52:49;;;;;;;83.90;37.30;;;;;;;-4.73;100.00;100255.21;105323;1288;1002800;-79
2022/12/17 20:55:16;;;;;;;77.40;33.60;;;;;;;-4.73;100.00;100257.81;106081;1289;58059;-80
2022/12/17 20:57:42;;;;;;;68.90;29.90;;;;;;;-4.73;100.00;100263.02;105378;1280;1002310;-78
2022/12/17 21:00:09;;;;;;;63.10;28.30;;;;;;;-4.75;100.00;100265.94;106102;1288;58088;-80
2022/12/17 21:02:35;;;;;;;64.40;28.90;;;;;;;-4.77;100.00;100269.71;106108;1296;58093;-79
2022/12/17 21:05:02;;;;;;;63.10;26.30;;;;;;;-4.79;100.00;100273.33;106098;1289;58226;-79
2022/12/17 21:07:30;;;;;;;70.30;30.60;;;;;;;-4.80;100.00;100271.58;105965;1289;59353;-79
2022/12/17 21:09:56;;;;;;;63.60;26.40;;;;;;;-4.80;100.00;100274.34;105378;1287;1002587;-78
2022/12/17 21:13:27;;;;;;;62.10;27.40;;;;;;;-4.80;100.00;100276.25;106176;1281;58062;-78
2022/12/17 21:15:08;;;;;;;62.90;28.00;;;;;;;-4.82;100.00;100280.03;105970;1291;62771;-78
2022/12/17 21:17:34;;;;;;;69.10;30.40;;;;;;;-4.83;100.00;100286.25;106089;1287;58370;-78
2022/12/17 21:20:00;;;;;;;70.40;31.10;;;;;;;-4.82;100.00;100292.52;106187;1289;58130;-79
2022/12/17 21:22:26;;;;;;;56.60;25.60;;;;;;;-4.80;100.00;100297.39;106265;1285;58518;-79
2022/12/17 21:24:53;;;;;;;72.70;31.60;;;;;;;-4.80;100.00;100293.23;106113;1289;58238;-77
2022/12/17 21:27:19;;;;;;;71.10;30.70;;;;;;;-4.82;100.00;100294.26;106074;1282;58164;-79
2022/12/17 21:29:46;;;;;;;72.00;31.60;;;;;;;-4.83;100.00;100290.23;106098;1288;58213;-79
2022/12/17 21:32:13;;;;;;;75.30;32.10;;;;;;;-4.87;100.00;100294.01;106112;1288;58078;-78
2022/12/17 21:34:39;;;;;;;74.20;33.80;;;;;;;-4.89;100.00;100297.26;106126;1289;58127;-79
2022/12/17 21:37:05;;;;;;;67.70;28.60;;;;;;;-4.89;100.00;100302.11;106107;1282;58966;-79
2022/12/17 21:39:31;;;;;;;65.20;28.60;;;;;;;-4.91;100.00;100311.09;106134;1288;58093;-80
2022/12/17 21:44:42;;;;;;;59.60;26.80;;;;;;;-4.96;100.00;100323.83;106061;1281;61586;-80
2022/12/17 21:47:09;;;;;;;72.20;31.20;;;;;;;-4.97;100.00;100330.23;106103;1285;58110;-78
2022/12/17 21:49:34;;;;;;;65.50;28.10;;;;;;;-4.97;100.00;100335.25;106134;1287;58370;-78
2022/12/17 21:52:01;;;;;;;68.00;30.90;;;;;;;-4.97;100.00;100338.20;106119;1285;58113;-80
2022/12/17 21:54:27;;;;;;;77.40;33.00;;;;;;;-4.99;100.00;100343.02;105364;1281;1003007;-79
2022/12/17 21:56:53;;;;;;;71.20;30.50;;;;;;;-5.01;100.00;100342.65;106119;1287;57895;-79
2022/12/17 21:59:19;;;;;;;65.90;29.10;;;;;;;-5.01;100.00;100335.88;106115;1288;58513;-79
2022/12/17 22:01:45;;;;;;;78.30;33.10;;;;;;;-5.00;100.00;100336.42;106102;1288;58209;-79
2022/12/17 22:04:11;;;;;;;70.50;29.60;;;;;;;-4.97;100.00;100341.66;105804;1291;58162;-80
2022/12/17 22:06:37;;;;;;;72.70;32.00;;;;;;;-4.98;100.00;100338.19;106138;1281;58280;-81
2022/12/17 22:09:05;;;;;;;60.50;26.80;;;;;;;-4.97;100.00;100336.11;106103;1297;66172;-82
2022/12/17 22:11:31;;;;;;;68.60;29.90;;;;;;;-5.00;100.00;100335.89;106067;1289;68779;-79
2022/12/17 22:14:08;;;;;;;71.90;30.30;;;;;;;-5.01;100.00;100337.25;106070;1289;58152;-75
2022/12/17 22:16:39;;;;;;;55.00;26.60;;;;;;;-5.02;100.00;100342.95;106095;1288;58079;-79
2022/12/17 22:19:04;;;;;;;69.20;29.30;;;;;;;-5.03;100.00;100340.87;106078;1294;60210;-79
2022/12/17 22:21:36;;;;;;;62.40;28.50;;;;;;;-5.03;100.00;100348.33;105367;1288;1002422;-79
2022/12/17 22:24:02;;;;;;;63.40;29.70;;;;;;;-5.01;100.00;100354.92;105353;1288;1004120;-79
2022/12/17 22:26:28;;;;;;;58.30;26.90;;;;;;;-4.99;100.00;100357.56;106099;1289;63669;-79
2022/12/17 22:28:55;;;;;;;66.90;28.70;;;;;;;-4.99;100.00;100356.02;106098;1297;58125;-79
2022/12/17 22:34:08;;;;;;;64.50;31.50;;;;;;;-4.99;100.00;100361.04;106115;1287;65327;-79
2022/12/17 22:36:34;;;;;;;69.00;31.60;;;;;;;-5.00;100.00;100363.45;106122;1289;67305;-79
2022/12/17 22:39:04;;;;;;;55.20;26.20;;;;;;;-5.02;100.00;100364.80;105759;1297;58137;-78
2022/12/17 22:44:18;;;;;;;61.70;29.10;;;;;;;-5.02;100.00;100362.55;106116;1288;58103;-78
2022/12/17 22:46:44;;;;;;;65.80;31.00;;;;;;;-5.04;100.00;100372.91;106129;1288;65460;-78
2022/12/17 22:49:10;;;;;;;68.30;31.00;;;;;;;-5.04;100.00;100372.39;106143;1287;58381;-78
2022/12/17 22:51:36;;;;;;;63.40;29.50;;;;;;;-5.02;100.00;100374.33;106105;1289;58174;-79
2022/12/17 22:54:08;;;;;;;63.10;29.50;;;;;;;-5.03;100.00;100375.01;106123;1281;58270;-78
2022/12/17 22:56:37;;;;;;;64.90;28.40;;;;;;;-5.02;100.00;100377.10;105371;1288;1002399;-79
2022/12/17 22:59:04;;;;;;;66.60;30.20;;;;;;;-5.01;100.00;100382.84;106113;1281;74083;-78
2022/12/17 23:01:30;;;;;;;62.40;28.10;;;;;;;-4.99;100.00;100385.98;106130;1281;59991;-78
2022/12/17 23:03:58;;;;;;;69.00;32.00;;;;;;;-4.99;100.00;100394.67;105801;1297;58191;-78
2022/12/17 23:06:25;;;;;;;70.40;34.50;;;;;;;-4.99;100.00;100400.21;106099;1289;58333;-78
2022/12/17 23:08:51;;;;;;;75.40;34.70;;;;;;;-4.98;100.00;100401.44;106084;1289;58070;-78
2022/12/17 23:11:22;;;;;;;60.00;31.10;;;;;;;-4.96;100.00;100402.16;106108;1287;58544;-77
2022/12/17 23:13:49;;;;;;;64.50;29.80;;;;;;;-4.94;100.00;100405.33;106121;1288;59780;-79
2022/12/17 23:16:15;;;;;;;64.50;31.40;;;;;;;-4.93;100.00;100406.90;106125;1287;63976;-77
2022/12/17 23:18:42;;;;;;;66.20;30.00;;;;;;;-4.94;100.00;100410.02;106108;1287;58188;-77
2022/12/17 23:21:14;;;;;;;59.70;29.10;;;;;;;-4.93;100.00;100414.38;106130;1288;58188;-79
2022/12/17 23:23:41;;;;;;;64.20;30.20;;;;;;;-4.92;100.00;100418.02;105361;1287;1002985;-78
2022/12/17 23:26:15;;;;;;;65.60;31.30;;;;;;;-4.93;100.00;100418.35;106158;1289;58098;-79
2022/12/17 23:28:42;;;;;;;73.20;32.70;;;;;;;-4.93;100.00;100420.60;106099;1288;65004;-79
2022/12/17 23:31:10;;;;;;;66.70;31.30;;;;;;;-4.92;100.00;100421.48;106109;1288;58732;-79
2022/12/17 23:33:37;;;;;;;68.20;30.40;;;;;;;-4.93;100.00;100423.88;105748;1290;58383;-79
2022/12/17 23:36:06;;;;;;;61.20;28.20;;;;;;;-4.93;100.00;100428.23;105769;1290;73930;-79
2022/12/17 23:38:32;;;;;;;62.50;29.10;;;;;;;-4.91;100.00;100428.60;105769;1290;68905;-80
2022/12/17 23:41:08;;;;;;;64.10;28.20;;;;;;;-4.90;100.00;100429.16;105751;1295;58080;-79
2022/12/17 23:43:34;;;;;;;62.50;28.80;;;;;;;-4.89;100.00;100433.17;105762;1298;58635;-79
2022/12/17 23:46:00;;;;;;;57.00;27.40;;;;;;;-4.87;100.00;100434.92;105782;1290;58067;-79
2022/12/17 23:48:31;;;;;;;67.40;30.60;;;;;;;-4.86;100.00;100437.55;105772;1295;58242;-79
2022/12/17 23:51:00;;;;;;;56.60;26.00;;;;;;;-4.85;100.00;100435.65;105765;1290;69821;-79
2022/12/17 23:53:27;;;;;;;69.80;28.60;;;;;;;-4.83;100.00;100440.88;105776;1296;65195;-77
2022/12/17 23:55:53;;;;;;;67.50;28.10;;;;;;;-4.82;100.00;100446.78;105771;1296;58246;-79
2022/12/17 23:58:20;;;;;;;59.30;29.30;;;;;;;-4.84;100.00;100450.75;105787;1289;58094;-79
